Time;durP1;ratioP1;P1;durP2;ratioP2;P2;SDS_P1;SDS_P2;PMS_P1;PMS_P2;Temp;Humidity;BMP_temperature;BMP_pressure;BME280_temperature;BME280_humidity;BME280_pressure;Samples;Min_cycle;Max_cycle;Signal;HPM_P1;HPM_P2
2022/08/06 00:01:53;;;;;;;3.08;2.78;;;;;;;35.17;27.33;97926.72;5058899;28;20428;-84
2022/08/06 00:04:20;;;;;;;3.03;2.60;;;;;;;35.05;27.52;97922.28;5054819;28;20036;-84
2022/08/06 00:06:46;;;;;;;2.88;2.67;;;;;;;35.06;27.68;97932.41;5059513;28;20035;-84
2022/08/06 00:09:12;;;;;;;3.35;2.35;;;;;;;34.96;27.28;97931.03;5058473;28;20029;-84
2022/08/06 00:11:39;;;;;;;3.00;2.55;;;;;;;34.80;27.18;97936.69;5053680;28;20033;-84
2022/08/06 00:14:05;;;;;;;3.33;2.65;;;;;;;34.80;27.52;97936.69;5060231;28;20024;-84
2022/08/06 00:16:31;;;;;;;3.20;2.40;;;;;;;34.79;27.52;97937.97;5056961;28;20402;-84
2022/08/06 00:18:58;;;;;;;3.95;2.75;;;;;;;34.66;27.95;97938.41;5056966;28;20025;-85
2022/08/06 00:21:24;;;;;;;3.70;2.30;;;;;;;34.61;27.90;97942.03;5057618;28;20052;-84
2022/08/06 00:23:50;;;;;;;3.40;3.10;;;;;;;34.69;27.62;97943.88;5055234;28;20178;-84
2022/08/06 00:26:16;;;;;;;4.93;2.65;;;;;;;34.66;27.46;97941.25;5060194;28;20028;-84
2022/08/06 00:28:42;;;;;;;3.20;2.70;;;;;;;34.73;27.61;97935.84;5057923;28;20477;-84
2022/08/06 00:31:09;;;;;;;3.40;3.10;;;;;;;34.59;27.63;97936.81;5053538;28;20163;-84
2022/08/06 00:33:36;;;;;;;3.58;2.70;;;;;;;34.44;27.73;97947.59;5056894;28;20068;-84
2022/08/06 00:36:02;;;;;;;4.28;2.35;;;;;;;34.33;28.49;97950.34;5054911;28;20040;-84
2022/08/06 00:38:28;;;;;;;3.30;2.92;;;;;;;34.45;27.75;97954.09;5053979;28;20401;-84
2022/08/06 00:40:55;;;;;;;4.75;2.75;;;;;;;34.48;27.75;97948.13;5054290;28;20025;-83
2022/08/06 00:43:21;;;;;;;2.65;2.45;;;;;;;34.61;27.67;97950.59;5057236;28;20106;-84
2022/08/06 00:45:47;;;;;;;2.25;2.05;;;;;;;34.54;27.74;97942.50;5056674;28;20105;-84
2022/08/06 00:48:14;;;;;;;3.25;2.95;;;;;;;34.44;27.90;97949.66;5056087;28;20041;-84
2022/08/06 00:50:40;;;;;;;2.88;2.60;;;;;;;34.33;27.81;97950.34;5055057;28;20086;-84
2022/08/06 00:53:06;;;;;;;3.10;2.83;;;;;;;34.27;28.04;97949.53;5058069;28;20139;-84
2022/08/06 00:55:34;;;;;;;2.72;2.53;;;;;;;34.45;27.95;97948.38;5055463;28;20444;-85
2022/08/06 00:58:00;;;;;;;2.25;2.08;;;;;;;34.64;27.14;97941.00;5058555;28;20490;-85
2022/08/06 01:00:26;;;;;;;2.50;2.30;;;;;;;34.61;27.35;97942.78;5062407;28;20515;-84
2022/08/06 01:02:52;;;;;;;3.20;2.45;;;;;;;34.44;28.15;97939.03;5057055;28;20381;-84
2022/08/06 01:05:18;;;;;;;3.95;2.72;;;;;;;34.28;28.13;97945.41;5058601;28;20400;-84
2022/08/06 01:07:44;;;;;;;2.47;2.30;;;;;;;33.94;28.26;97952.88;5057797;28;20036;-84
2022/08/06 01:10:10;;;;;;;2.63;2.42;;;;;;;34.01;28.44;97943.88;5058620;28;20040;-84
2022/08/06 01:12:37;;;;;;;2.72;2.53;;;;;;;34.26;27.94;97939.41;5057682;28;20040;-85
2022/08/06 01:15:05;;;;;;;2.80;2.60;;;;;;;34.10;27.98;97931.53;5059649;28;20036;-85
2022/08/06 01:17:38;;;;;;;4.35;2.95;;;;;;;33.82;28.43;97931.28;5058873;28;20040;-84
2022/08/06 01:20:44;;;;;;;2.38;2.20;;;;;;;33.57;28.92;97937.00;5063845;28;20116;-84
2022/08/06 01:23:49;;;;;;;2.88;2.67;;;;;;;33.27;28.90;97937.19;5062954;28;20040;-84
2022/08/06 01:26:41;;;;;;;2.75;2.33;;;;;;;33.31;29.12;97940.59;5063905;28;20086;-84
2022/08/06 01:29:19;;;;;;;2.97;2.67;;;;;;;33.40;29.26;97937.56;5040962;28;20040;-84
2022/08/06 01:32:14;;;;;;;2.70;2.47;;;;;;;33.54;28.92;97933.06;5061210;28;20490;-84
2022/08/06 01:34:42;;;;;;;2.70;2.50;;;;;;;33.90;28.31;97940.16;5062286;28;20063;-84
2022/08/06 01:37:31;;;;;;;2.83;2.40;;;;;;;34.06;27.84;97939.53;5057541;28;20033;-84
2022/08/06 01:40:04;;;;;;;2.40;2.20;;;;;;;34.15;28.01;97939.34;5060804;28;20032;-84
2022/08/06 01:42:32;;;;;;;2.80;2.53;;;;;;;34.15;27.89;97932.84;5059683;28;20033;-84
2022/08/06 01:45:01;;;;;;;2.03;1.92;;;;;;;33.99;28.17;97932.22;5061630;28;20025;-84
2022/08/06 01:47:30;;;;;;;2.35;2.15;;;;;;;34.14;27.59;97934.94;5061560;28;20067;-84
2022/08/06 01:50:01;;;;;;;2.78;2.58;;;;;;;34.27;27.65;97945.91;5057303;28;20115;-84
2022/08/06 01:52:29;;;;;;;4.32;3.67;;;;;;;33.04;29.28;97980.09;5060729;28;20071;-85
2022/08/06 01:54:58;;;;;;;4.95;4.55;;;;;;;32.76;30.20;97948.41;5063861;28;20053;-84
2022/08/06 01:57:26;;;;;;;4.70;4.30;;;;;;;32.67;30.93;97982.69;5060086;28;20039;-84
2022/08/06 01:59:55;;;;;;;7.35;5.00;;;;;;;33.08;30.11;97963.59;5065038;28;20048;-84
2022/08/06 02:02:25;;;;;;;4.07;3.78;;;;;;;33.29;29.57;97982.22;5058822;28;20496;-84
2022/08/06 02:04:55;;;;;;;4.15;3.75;;;;;;;33.46;29.27;97968.16;5060380;28;20447;-84
2022/08/06 02:07:29;;;;;;;4.22;3.83;;;;;;;33.87;28.23;97975.34;5058421;28;20033;-84
2022/08/06 02:09:58;;;;;;;4.10;3.80;;;;;;;33.44;29.27;97972.28;5058143;28;20082;-84
2022/08/06 02:12:26;;;;;;;3.53;3.22;;;;;;;33.63;28.44;97972.00;5055055;28;20090;-84
2022/08/06 02:15:13;;;;;;;4.28;3.80;;;;;;;33.98;28.00;97972.63;5060206;28;20032;-84
2022/08/06 02:17:45;;;;;;;4.15;3.25;;;;;;;33.80;27.98;97965.19;5055222;28;20025;-84
2022/08/06 02:20:16;;;;;;;3.47;3.20;;;;;;;33.86;28.21;97968.88;5055359;28;20029;-84
2022/08/06 02:22:43;;;;;;;4.25;3.80;;;;;;;34.07;27.76;97973.22;5067946;28;20139;-84
2022/08/06 02:25:13;;;;;;;3.85;3.55;;;;;;;33.98;27.75;97975.47;5061496;28;20028;-84
2022/08/06 02:27:43;;;;;;;4.13;2.97;;;;;;;33.95;27.79;97982.16;5054806;28;20025;-84
2022/08/06 02:30:10;;;;;;;3.88;2.85;;;;;;;33.72;27.91;97995.41;5059207;28;20035;-84
2022/08/06 02:32:37;;;;;;;3.22;2.78;;;;;;;33.48;28.55;97991.22;5059178;28;20048;-84
2022/08/06 02:35:03;;;;;;;3.35;3.05;;;;;;;33.31;28.43;97997.50;5060585;28;20029;-84
2022/08/06 02:37:43;;;;;;;3.22;2.92;;;;;;;33.33;28.10;97997.78;5059174;28;20059;-84
2022/08/06 02:40:21;;;;;;;3.30;3.00;;;;;;;33.41;28.40;97998.16;5058106;28;20153;-84
2022/08/06 02:43:00;;;;;;;3.92;3.00;;;;;;;33.29;28.15;98000.06;5061832;28;20025;-84
2022/08/06 02:45:36;;;;;;;4.47;3.08;;;;;;;33.31;28.24;98006.06;5061622;28;20048;-84
2022/08/06 02:48:32;;;;;;;3.35;3.05;;;;;;;33.42;28.38;98002.56;5058090;28;20029;-84
2022/08/06 02:50:59;;;;;;;3.15;2.85;;;;;;;33.51;28.32;98007.31;5064396;28;20064;-84
2022/08/06 02:53:34;;;;;;;3.45;3.15;;;;;;;33.61;28.33;98015.22;5058588;28;20020;-84
2022/08/06 02:56:05;;;;;;;4.25;2.80;;;;;;;33.61;28.68;98017.31;5055321;28;20477;-84
2022/08/06 02:58:43;;;;;;;4.45;3.75;;;;;;;33.42;29.00;98019.66;5061345;28;20029;-84
2022/08/06 03:01:15;;;;;;;4.13;3.72;;;;;;;33.11;29.99;98020.28;5061283;28;20154;-84
2022/08/06 03:03:45;;;;;;;5.88;5.30;;;;;;;32.64;30.84;98024.25;5054585;28;20064;-84
2022/08/06 03:06:14;;;;;;;5.30;4.80;;;;;;;32.81;30.59;98023.72;5061813;28;20071;-84
2022/08/06 03:08:42;;;;;;;4.95;4.55;;;;;;;32.96;30.71;98030.13;5057158;28;20790;-84
2022/08/06 03:11:11;;;;;;;7.85;5.32;;;;;;;32.70;30.71;98022.28;5062790;28;20028;-84
2022/08/06 03:13:38;;;;;;;4.95;4.53;;;;;;;32.90;30.88;98026.44;5058356;28;20044;-84
2022/08/06 03:16:06;;;;;;;6.63;5.95;;;;;;;32.73;31.01;98034.72;5060812;28;20041;-84
2022/08/06 03:18:34;;;;;;;6.05;5.28;;;;;;;32.92;30.65;98033.19;5054860;28;20025;-84
2022/08/06 03:21:02;;;;;;;7.45;6.28;;;;;;;32.80;31.36;98040.00;5058525;28;20120;-84
2022/08/06 03:23:30;;;;;;;6.25;5.43;;;;;;;32.61;31.02;98047.97;5057903;28;20230;-84
2022/08/06 03:25:58;;;;;;;9.10;6.80;;;;;;;32.59;31.51;98052.59;5056410;28;20036;-84
2022/08/06 03:28:27;;;;;;;7.22;5.90;;;;;;;32.82;31.23;98043.13;5061960;28;20028;-84
2022/08/06 03:30:54;;;;;;;6.30;5.70;;;;;;;32.75;31.30;98041.47;5054960;28;20470;-84
2022/08/06 03:33:21;;;;;;;8.45;6.28;;;;;;;32.55;31.54;98054.88;5059358;28;20040;-84
2022/08/06 03:35:49;;;;;;;5.70;5.20;;;;;;;32.52;31.88;98058.69;5057191;28;20040;-84
2022/08/06 03:38:16;;;;;;;6.55;5.95;;;;;;;32.69;31.33;98059.75;5053839;28;20496;-85
2022/08/06 03:40:46;;;;;;;7.70;5.93;;;;;;;32.95;31.00;98051.34;5055335;28;20038;-84
2022/08/06 03:43:12;;;;;;;9.18;6.72;;;;;;;33.12;30.70;98058.84;5056782;28;20028;-84
2022/08/06 03:45:48;;;;;;;6.68;6.00;;;;;;;32.97;31.36;98057.31;5052927;28;20029;-84
2022/08/06 03:48:18;;;;;;;7.00;6.18;;;;;;;32.98;31.11;98068.19;5057307;28;20033;-84
2022/08/06 03:50:48;;;;;;;8.15;5.57;;;;;;;32.68;31.30;98072.38;5054662;28;20041;-84
2022/08/06 03:53:25;;;;;;;8.88;5.95;;;;;;;32.66;31.76;98066.41;5055983;28;20147;-84
2022/08/06 03:55:57;;;;;;;10.93;6.93;;;;;;;32.40;32.08;98062.59;5054475;28;20029;-85
2022/08/06 03:58:25;;;;;;;12.07;6.47;;;;;;;32.67;31.67;98085.03;5056303;28;20229;-84
2022/08/06 04:00:59;;;;;;;7.10;5.82;;;;;;;32.88;31.61;98080.19;5053985;28;20498;-83
2022/08/06 04:03:26;;;;;;;7.03;6.32;;;;;;;32.67;31.43;98085.03;5065452;28;20162;-84
2022/08/06 04:05:54;;;;;;;6.35;5.70;;;;;;;33.08;31.14;98092.41;5060818;28;20037;-84
2022/08/06 04:08:21;;;;;;;6.30;5.65;;;;;;;33.43;30.59;98092.38;5087089;28;20013;-83
2022/08/06 04:10:49;;;;;;;6.90;5.95;;;;;;;33.13;31.12;98097.41;5080918;28;20040;-84
2022/08/06 04:13:18;;;;;;;6.53;5.82;;;;;;;32.92;31.54;98098.63;5057420;28;20094;-85
2022/08/06 04:15:45;;;;;;;6.70;6.10;;;;;;;32.68;32.22;98109.34;5057684;28;20031;-85
2022/08/06 04:18:15;;;;;;;7.35;6.05;;;;;;;33.36;31.21;98110.66;5056546;28;20068;-84
2022/08/06 04:20:47;;;;;;;;;;;;;;;33.37;30.77;98115.06;5054350;28;20378;-84
2022/08/06 04:23:13;;;;;;;8.73;6.68;;;;;;;33.76;30.68;98109.13;5061011;28;19917;-85
2022/08/06 04:25:47;;;;;;;7.50;6.47;;;;;;;33.68;30.78;98113.69;5067490;28;20120;-85
2022/08/06 04:28:16;;;;;;;7.10;6.22;;;;;;;33.60;30.90;98127.56;5056801;28;20033;-85
2022/08/06 04:30:43;;;;;;;8.02;6.97;;;;;;;33.93;30.39;98133.69;5058213;28;20511;-85
2022/08/06 04:33:13;;;;;;;8.63;6.72;;;;;;;34.43;29.55;98142.78;5055397;28;20036;-85
2022/08/06 04:35:41;;;;;;;7.18;6.47;;;;;;;34.06;30.46;98139.81;5055300;28;20039;-85
2022/08/06 04:38:08;;;;;;;7.18;6.45;;;;;;;34.25;30.00;98148.81;5067424;28;20066;-85
2022/08/06 04:40:37;;;;;;;8.80;6.60;;;;;;;34.40;29.52;98151.56;5061468;28;20037;-85
2022/08/06 04:43:08;;;;;;;7.40;6.70;;;;;;;34.48;29.28;98150.59;5050180;28;20061;-84
2022/08/06 04:45:35;;;;;;;;;;;;;;;34.10;29.86;98161.63;5067061;28;20463;-84
2022/08/06 04:48:05;;;;;;;7.00;6.40;;;;;;;34.02;30.06;98164.06;5058371;28;19959;-84
2022/08/06 04:50:32;;;;;;;8.37;6.83;;;;;;;34.06;30.07;98165.47;5066693;28;20043;-84
2022/08/06 04:53:15;;;;;;;8.50;7.70;;;;;;;33.67;30.90;98171.94;5060146;28;20287;-84
2022/08/06 04:55:43;;;;;;;9.90;7.80;;;;;;;34.05;30.51;98183.81;5058151;28;20112;-84
2022/08/06 04:58:11;;;;;;;13.18;8.10;;;;;;;34.02;30.25;98189.72;5058103;28;20078;-84
2022/08/06 05:00:40;;;;;;;9.02;8.13;;;;;;;33.96;30.59;98188.84;5052418;28;20025;-83
2022/08/06 05:03:06;;;;;;;10.30;8.55;;;;;;;33.63;30.99;98199.84;5059216;28;20385;-84
2022/08/06 05:05:41;;;;;;;8.63;7.82;;;;;;;34.09;30.45;98200.72;5057197;28;20061;-85
2022/08/06 05:08:09;;;;;;;8.88;7.90;;;;;;;34.68;29.74;98210.44;5065311;28;20080;-85
2022/08/06 05:10:51;;;;;;;9.77;7.93;;;;;;;34.85;29.46;98216.31;5058279;28;20045;-84
2022/08/06 05:13:20;;;;;;;8.35;7.55;;;;;;;34.43;30.07;98213.28;5055369;28;20477;-85
2022/08/06 05:15:51;;;;;;;8.65;7.55;;;;;;;34.64;29.46;98227.00;5060139;28;20489;-84
2022/08/06 05:18:34;;;;;;;8.95;7.78;;;;;;;34.57;29.62;98233.16;5053678;28;20036;-84
2022/08/06 05:21:02;;;;;;;10.63;7.75;;;;;;;34.04;30.52;98215.69;5052601;28;20032;-85
2022/08/06 05:23:42;;;;;;;10.45;7.05;;;;;;;34.58;29.92;98249.00;5059518;28;20493;-84
2022/08/06 05:26:09;;;;;;;8.20;7.22;;;;;;;34.79;29.52;98246.09;5057474;28;20108;-84
2022/08/06 05:28:38;;;;;;;9.38;7.07;;;;;;;34.77;29.35;98252.31;5061213;28;20024;-84
2022/08/06 05:31:04;;;;;;;7.18;6.47;;;;;;;34.72;29.54;98258.75;5054058;28;20028;-84
2022/08/06 05:33:33;;;;;;;7.25;6.55;;;;;;;34.53;29.95;98266.84;5054661;28;20040;-84
2022/08/06 05:36:01;;;;;;;6.95;6.25;;;;;;;34.82;29.54;98271.56;5061243;28;20108;-84
2022/08/06 05:38:27;;;;;;;9.57;6.80;;;;;;;34.52;29.80;98270.13;5058624;28;20033;-83
2022/08/06 05:40:55;;;;;;;6.57;5.97;;;;;;;34.58;29.75;98276.75;5056424;28;20041;-83
2022/08/06 05:43:22;;;;;;;6.82;6.13;;;;;;;34.27;30.61;98291.63;5057572;28;20098;-83
2022/08/06 05:45:52;;;;;;;7.28;6.57;;;;;;;34.57;29.61;98290.22;5051597;28;20083;-83
2022/08/06 05:48:20;;;;;;;11.07;7.43;;;;;;;34.41;29.64;98298.53;5059859;28;20484;-85
2022/08/06 05:50:54;;;;;;;7.25;6.55;;;;;;;33.21;31.87;98309.16;5059058;28;20099;-84
2022/08/06 05:53:32;;;;;;;9.05;7.75;;;;;;;33.08;31.76;98307.88;5061086;28;20502;-86
2022/08/06 05:56:04;;;;;;;7.45;6.60;;;;;;;33.30;31.43;98317.59;5060253;28;20029;-84
2022/08/06 05:58:35;;;;;;;8.95;6.70;;;;;;;32.79;32.61;98322.84;5058936;28;20032;-84
2022/08/06 06:01:04;;;;;;;14.35;6.93;;;;;;;32.61;32.71;98326.63;5061653;28;20124;-81
2022/08/06 06:03:31;;;;;;;7.22;6.32;;;;;;;33.00;32.22;98315.22;5062662;28;20052;-83
2022/08/06 06:05:59;;;;;;;8.13;6.80;;;;;;;33.37;31.89;98339.97;5062546;28;20162;-83
2022/08/06 06:08:26;;;;;;;8.05;6.60;;;;;;;32.86;32.63;98345.19;5060677;28;20031;-83
2022/08/06 06:10:53;;;;;;;8.15;6.35;;;;;;;33.50;31.67;98345.34;5064371;28;20029;-83
2022/08/06 06:13:24;;;;;;;6.80;6.20;;;;;;;33.63;31.46;98356.47;5064006;28;20021;-83
2022/08/06 06:16:16;;;;;;;7.75;6.20;;;;;;;33.40;31.85;98356.06;5060137;28;20036;-83
2022/08/06 06:19:03;;;;;;;7.85;6.30;;;;;;;33.82;30.99;98358.59;5063401;28;20044;-83
2022/08/06 06:21:53;;;;;;;7.40;5.45;;;;;;;34.37;30.39;98367.19;5060952;28;20050;-83
2022/08/06 06:24:30;;;;;;;6.00;5.50;;;;;;;34.52;29.99;98373.63;5062959;28;20870;-83
2022/08/06 06:27:17;;;;;;;6.00;5.40;;;;;;;34.43;29.91;98379.44;5058469;28;20393;-83
2022/08/06 06:30:07;;;;;;;6.15;5.30;;;;;;;34.32;30.44;98382.16;5056799;28;20049;-83
2022/08/06 06:32:44;;;;;;;5.43;4.93;;;;;;;34.11;30.55;98372.00;5060595;28;20500;-84
2022/08/06 06:35:37;;;;;;;5.43;4.93;;;;;;;33.96;30.88;98379.78;5061860;28;20118;-85
2022/08/06 06:38:23;;;;;;;5.45;4.95;;;;;;;33.69;31.05;98385.81;5059638;28;20071;-83
2022/08/06 06:40:54;;;;;;;5.28;4.78;;;;;;;34.11;30.51;98394.81;5055234;28;20048;-83
2022/08/06 06:43:40;;;;;;;5.65;5.15;;;;;;;34.18;30.40;98393.59;5059470;28;20036;-85
2022/08/06 06:46:15;;;;;;;4.03;3.72;;;;;;;34.87;29.45;98392.75;5064187;28;20453;-84
2022/08/06 06:48:44;;;;;;;4.38;3.97;;;;;;;34.45;29.77;98394.00;5063521;28;20041;-85
2022/08/06 06:51:20;;;;;;;4.63;4.20;;;;;;;34.85;29.52;98392.44;5058352;28;20116;-83
2022/08/06 06:53:50;;;;;;;4.70;4.28;;;;;;;34.91;29.34;98391.25;5058967;28;20115;-84
2022/08/06 06:56:19;;;;;;;10.70;4.97;;;;;;;34.74;29.49;98398.81;5064195;28;20124;-85
2022/08/06 06:58:55;;;;;;;4.25;3.92;;;;;;;34.91;29.34;98399.00;5056043;28;20028;-84
2022/08/06 07:01:23;;;;;;;4.20;3.90;;;;;;;35.42;29.09;98391.28;5069242;28;20041;-83
2022/08/06 07:03:50;;;;;;;3.90;3.60;;;;;;;35.73;28.20;98401.19;5067901;28;20389;-83
2022/08/06 07:06:18;;;;;;;4.35;3.95;;;;;;;35.86;28.35;98399.50;5077775;28;20025;-83
2022/08/06 07:08:47;;;;;;;4.28;3.47;;;;;;;35.95;28.18;98407.09;5075307;28;20029;-83
2022/08/06 07:11:21;;;;;;;3.67;3.33;;;;;;;36.04;28.20;98416.28;5067126;28;20112;-83
2022/08/06 07:13:49;;;;;;;3.03;2.83;;;;;;;36.26;27.80;98414.88;5058943;28;20036;-84
2022/08/06 07:16:18;;;;;;;3.25;2.95;;;;;;;36.40;28.18;98423.28;5059027;28;20039;-83
2022/08/06 07:18:45;;;;;;;3.72;3.42;;;;;;;36.38;28.09;98422.22;5057612;28;20047;-84
2022/08/06 07:21:14;;;;;;;3.17;2.88;;;;;;;36.52;27.47;98436.41;5064654;28;20116;-85
2022/08/06 07:23:42;;;;;;;3.22;3.03;;;;;;;36.41;27.86;98439.13;5059054;28;20131;-85
2022/08/06 07:26:12;;;;;;;4.75;2.85;;;;;;;35.94;28.45;98445.56;5061532;28;20036;-85
2022/08/06 07:28:38;;;;;;;2.85;2.65;;;;;;;35.19;29.66;98445.81;5061305;28;20524;-85
2022/08/06 07:31:07;;;;;;;3.65;3.13;;;;;;;35.18;29.67;98445.03;5070409;28;20029;-84
2022/08/06 07:33:35;;;;;;;5.07;3.47;;;;;;;34.91;29.88;98444.69;5053275;28;20029;-83
2022/08/06 07:36:01;;;;;;;4.07;3.78;;;;;;;34.75;30.62;98461.06;5060445;28;20025;-81
2022/08/06 07:38:28;;;;;;;3.85;3.55;;;;;;;34.67;30.76;98459.94;5058787;28;20029;-83
2022/08/06 07:40:58;;;;;;;3.35;2.90;;;;;;;34.89;30.20;98464.38;5056606;28;20162;-84
2022/08/06 07:43:38;;;;;;;4.95;4.07;;;;;;;34.58;30.53;98465.00;5052619;28;20052;-85
2022/08/06 07:46:08;;;;;;;4.80;3.78;;;;;;;34.47;30.95;98468.41;5051123;28;20082;-85
2022/08/06 07:48:47;;;;;;;4.60;4.13;;;;;;;34.62;30.68;98465.56;5053562;28;20029;-85
2022/08/06 07:51:15;;;;;;;5.13;4.63;;;;;;;34.34;31.22;98472.88;5053329;28;20029;-85
2022/08/06 07:53:42;;;;;;;4.93;4.53;;;;;;;34.39;31.13;98475.03;5052228;28;20047;-85
2022/08/06 07:56:10;;;;;;;4.35;3.95;;;;;;;35.05;30.32;98478.09;5054469;28;20040;-85
2022/08/06 07:58:37;;;;;;;5.03;4.65;;;;;;;35.12;30.23;98480.53;5066651;28;20040;-85
2022/08/06 08:01:05;;;;;;;5.15;4.75;;;;;;;35.08;30.08;98494.22;5072463;28;20052;-85
2022/08/06 08:06:23;;;;;;;4.93;4.53;;;;;;;35.05;29.67;98495.22;5071250;28;20443;-85
2022/08/06 08:09:02;;;;;;;4.30;4.00;;;;;;;35.34;29.22;98512.19;5071364;28;20074;-84
2022/08/06 08:11:30;;;;;;;4.00;3.70;;;;;;;35.26;29.42;98511.06;5071394;28;20029;-85
2022/08/06 08:13:58;;;;;;;3.95;3.65;;;;;;;35.70;28.78;98510.78;5071012;28;20055;-85
2022/08/06 08:16:26;;;;;;;3.63;3.33;;;;;;;35.60;28.88;98513.03;5086638;28;20032;-85
2022/08/06 08:18:53;;;;;;;3.35;3.05;;;;;;;35.47;29.18;98521.16;5092427;28;20032;-85
2022/08/06 08:21:20;;;;;;;3.45;3.15;;;;;;;35.37;29.30;98511.19;5085199;28;20040;-85
2022/08/06 08:23:49;;;;;;;3.58;3.28;;;;;;;35.57;29.16;98518.97;5051711;28;20040;-85
2022/08/06 08:26:15;;;;;;;2.75;2.55;;;;;;;35.48;29.31;98524.78;5053747;28;20434;-85
2022/08/06 08:28:41;;;;;;;3.25;2.80;;;;;;;35.96;28.80;98517.28;5054268;28;20112;-85
2022/08/06 08:31:08;;;;;;;2.95;2.75;;;;;;;35.70;28.91;98516.50;5055541;28;20159;-84
2022/08/06 08:33:35;;;;;;;13.88;4.13;;;;;;;35.77;28.90;98516.84;5073059;28;20131;-85
2022/08/06 08:36:02;;;;;;;7.07;2.78;;;;;;;35.74;28.79;98526.41;5066977;28;20037;-85
2022/08/06 08:38:32;;;;;;;2.65;2.45;;;;;;;35.96;28.67;98514.44;5072908;28;20040;-85
2022/08/06 08:41:15;;;;;;;2.28;2.08;;;;;;;36.50;28.18;98519.06;5059685;28;20489;-85
2022/08/06 08:43:48;;;;;;;3.58;2.35;;;;;;;36.71;27.53;98525.47;5053067;28;20029;-85
2022/08/06 08:46:15;;;;;;;2.38;2.10;;;;;;;36.84;27.19;98530.75;5053745;28;20477;-85
2022/08/06 08:48:43;;;;;;;2.42;2.20;;;;;;;36.80;27.50;98531.00;5054461;28;20028;-85
2022/08/06 08:51:12;;;;;;;4.20;1.92;;;;;;;36.85;27.56;98538.84;5072996;28;20029;-85
2022/08/06 08:53:45;;;;;;;2.00;1.88;;;;;;;36.86;27.51;98539.59;5053628;28;20047;-85
2022/08/06 08:56:12;;;;;;;2.65;2.38;;;;;;;36.78;27.75;98539.31;5052982;28;20040;-85
2022/08/06 08:58:40;;;;;;;2.00;1.90;;;;;;;36.85;27.48;98540.91;5053157;28;20091;-85
2022/08/06 09:01:08;;;;;;;2.03;1.83;;;;;;;36.86;27.83;98548.19;5053130;28;20420;-85
2022/08/06 09:03:40;;;;;;;2.88;1.85;;;;;;;36.48;28.17;98546.66;5053111;28;20041;-85
2022/08/06 09:06:07;;;;;;;2.15;1.95;;;;;;;36.28;28.37;98544.63;5053010;28;20043;-85
2022/08/06 09:08:34;;;;;;;3.17;1.98;;;;;;;36.15;28.57;98543.47;5052960;28;20021;-85
2022/08/06 09:11:00;;;;;;;5.43;2.63;;;;;;;36.36;28.58;98542.84;5082897;28;20537;-86
2022/08/06 09:13:30;;;;;;;2.10;1.90;;;;;;;36.34;28.52;98551.16;5093023;28;20044;-86
2022/08/06 09:15:57;;;;;;;2.20;2.00;;;;;;;36.37;28.50;98555.88;5092930;28;20106;-85
2022/08/06 09:18:24;;;;;;;2.67;1.83;;;;;;;36.58;28.10;98553.72;5092561;28;20042;-85
2022/08/06 09:20:51;;;;;;;1.50;1.40;;;;;;;36.30;27.48;98562.06;5061942;28;20029;-86
2022/08/06 09:23:18;;;;;;;1.92;1.83;;;;;;;36.62;27.63;98563.63;5057005;28;20481;-85
2022/08/06 09:25:52;;;;;;;1.85;1.75;;;;;;;36.46;27.83;98566.38;5076459;28;20028;-85
2022/08/06 09:28:37;;;;;;;1.90;1.80;;;;;;;36.19;28.24;98570.56;5076762;28;20391;-85
2022/08/06 09:31:12;;;;;;;1.80;1.70;;;;;;;36.14;28.32;98573.34;5071032;28;20443;-85
2022/08/06 09:33:42;;;;;;;1.55;1.45;;;;;;;36.35;27.64;98572.78;5070139;28;20041;-85
2022/08/06 09:36:10;;;;;;;2.00;1.67;;;;;;;36.23;28.32;98573.16;5073997;28;20033;-85
2022/08/06 09:38:48;;;;;;;1.75;1.60;;;;;;;36.59;27.70;98581.84;5076195;28;20070;-85
2022/08/06 09:41:16;;;;;;;1.45;1.30;;;;;;;36.81;27.62;98581.19;5075695;28;20029;-85
2022/08/06 09:43:45;;;;;;;5.65;2.13;;;;;;;36.89;27.13;98576.59;5076394;28;20064;-85
2022/08/06 09:46:12;;;;;;;1.50;1.38;;;;;;;36.57;27.85;98578.69;5074780;28;20032;-85
2022/08/06 09:49:00;;;;;;;2.63;2.13;;;;;;;36.52;27.76;98584.38;5075722;28;20097;-85
2022/08/06 09:51:27;;;;;;;4.05;2.00;;;;;;;36.15;28.46;98586.38;5064876;28;20041;-85
2022/08/06 09:53:58;;;;;;;3.72;1.98;;;;;;;35.76;28.48;98592.44;5062937;28;20381;-85
2022/08/06 09:56:25;;;;;;;4.53;2.08;;;;;;;35.53;29.06;98596.31;5071387;28;20450;-85
2022/08/06 09:58:59;;;;;;;1.90;1.80;;;;;;;35.78;28.15;98600.53;5060166;28;20025;-85
2022/08/06 10:01:26;;;;;;;4.82;1.95;;;;;;;36.13;28.17;98594.66;5056234;28;20064;-85
2022/08/06 10:03:54;;;;;;;1.65;1.55;;;;;;;35.34;28.77;98592.13;5069197;28;20033;-84
2022/08/06 10:06:20;;;;;;;1.55;1.35;;;;;;;35.42;28.62;98599.00;5075782;28;20036;-84
2022/08/06 10:09:05;;;;;;;2.08;1.88;;;;;;;35.71;28.47;98601.72;5063815;28;20029;-85
2022/08/06 10:11:40;;;;;;;1.85;1.60;;;;;;;34.60;29.95;98608.69;5067625;28;20437;-84
2022/08/06 10:14:25;;;;;;;1.73;1.63;;;;;;;34.68;29.67;98609.84;5066158;28;20420;-84
2022/08/06 10:17:09;;;;;;;2.30;1.77;;;;;;;35.41;28.57;98606.00;5055930;28;20033;-85
2022/08/06 10:19:38;;;;;;;1.75;1.30;;;;;;;35.24;28.94;98610.72;5056533;28;20117;-85
2022/08/06 10:22:15;;;;;;;1.92;1.58;;;;;;;35.53;28.30;98616.31;5055839;28;20140;-85
2022/08/06 10:24:44;;;;;;;10.25;2.28;;;;;;;35.60;28.38;98620.81;5056047;28;20100;-84
2022/08/06 10:27:13;;;;;;;1.50;1.38;;;;;;;35.23;28.97;98623.41;5055427;28;20072;-85
2022/08/06 10:29:43;;;;;;;1.92;1.63;;;;;;;34.94;29.20;98620.63;5066753;28;20058;-85
2022/08/06 10:32:16;;;;;;;1.58;1.45;;;;;;;35.16;28.92;98629.53;5074074;28;20033;-85
2022/08/06 10:34:47;;;;;;;2.25;1.35;;;;;;;35.53;28.35;98626.94;5074169;28;20153;-85
2022/08/06 10:37:16;;;;;;;1.85;1.40;;;;;;;35.71;28.13;98635.25;5069501;28;20040;-85
2022/08/06 10:39:45;;;;;;;1.50;1.25;;;;;;;35.21;28.76;98628.84;5059161;28;20029;-85
2022/08/06 10:42:13;;;;;;;1.20;1.10;;;;;;;35.20;28.94;98638.66;5070261;28;20031;-85
2022/08/06 10:44:40;;;;;;;1.08;1.00;;;;;;;35.06;28.89;98643.16;5056971;28;20041;-84
2022/08/06 10:47:07;;;;;;;1.52;1.20;;;;;;;35.00;29.08;98642.25;5065559;28;20040;-85
2022/08/06 10:49:35;;;;;;;1.63;1.30;;;;;;;34.70;29.40;98644.38;5068235;28;20081;-85
2022/08/06 10:52:01;;;;;;;1.73;1.30;;;;;;;35.03;29.21;98641.28;5054577;28;20029;-85
2022/08/06 10:54:27;;;;;;;1.20;1.10;;;;;;;34.45;29.97;98647.81;5056382;28;20037;-84
2022/08/06 10:56:55;;;;;;;1.20;1.10;;;;;;;34.44;30.55;98657.66;5054726;28;20032;-85
2022/08/06 10:59:21;;;;;;;1.75;1.02;;;;;;;34.38;30.82;98653.91;5055024;28;20033;-85
2022/08/06 11:02:03;;;;;;;2.88;1.77;;;;;;;34.03;31.78;98662.31;5055517;28;20112;-85
2022/08/06 11:04:48;;;;;;;1.50;1.40;;;;;;;34.10;31.82;98666.09;5054095;28;20036;-85
2022/08/06 11:07:40;;;;;;;1.80;1.25;;;;;;;33.13;33.35;98672.25;5074332;28;20043;-85
2022/08/06 11:10:38;;;;;;;2.00;1.77;;;;;;;32.82;34.27;98668.88;5074500;28;20426;-85
2022/08/06 11:13:13;;;;;;;2.53;1.90;;;;;;;33.52;32.94;98672.31;5054385;28;20397;-85
2022/08/06 11:15:41;;;;;;;3.13;1.58;;;;;;;33.55;32.43;98671.41;5054205;28;20477;-85
2022/08/06 11:18:09;;;;;;;2.03;1.80;;;;;;;33.78;32.61;98679.13;5054088;28;20025;-84
2022/08/06 11:20:39;;;;;;;2.30;1.52;;;;;;;33.22;33.57;98674.25;5073870;28;20225;-84
2022/08/06 11:23:12;;;;;;;2.53;1.48;;;;;;;33.84;32.65;98677.22;5069838;28;20048;-85
2022/08/06 11:25:55;;;;;;;1.38;1.23;;;;;;;33.43;32.81;98676.81;5074108;28;20028;-85
2022/08/06 11:28:32;;;;;;;1.98;1.40;;;;;;;33.55;33.01;98680.75;5074141;28;20036;-84
2022/08/06 11:31:01;;;;;;;1.73;1.63;;;;;;;32.64;34.67;98683.19;5074002;28;20060;-84
2022/08/06 11:33:34;;;;;;;1.58;1.48;;;;;;;33.36;33.66;98687.78;5073958;28;20037;-85
2022/08/06 11:36:00;;;;;;;2.15;1.30;;;;;;;33.44;33.29;98684.09;5065251;28;20029;-85
2022/08/06 11:38:48;;;;;;;1.30;1.20;;;;;;;33.74;32.86;98684.25;5058998;28;20028;-85
2022/08/06 11:41:21;;;;;;;1.20;1.10;;;;;;;33.40;33.26;98683.47;5072721;28;20106;-85
2022/08/06 11:43:53;;;;;;;1.48;1.20;;;;;;;33.18;33.96;98685.84;5074925;28;20468;-85
2022/08/06 11:46:28;;;;;;;1.30;1.20;;;;;;;33.35;33.09;98681.28;5055961;28;20490;-83
2022/08/06 11:49:20;;;;;;;1.20;1.10;;;;;;;33.85;32.88;98687.31;5057381;28;20016;-83
2022/08/06 11:51:57;;;;;;;0.93;0.82;;;;;;;33.54;33.00;98692.63;5054846;28;20028;-83
2022/08/06 11:54:27;;;;;;;1.27;1.17;;;;;;;33.60;33.14;98694.31;5056795;28;20446;-83
2022/08/06 11:57:04;;;;;;;1.15;1.00;;;;;;;33.87;32.74;98693.31;5055336;28;20059;-84